sensor_id;sensor_type;location;lat;lon;timestamp;temperature;humidity
65637;DHT22;52327;42.622;23.316;2023-02-28T00:00:21;7.61;91.77
65637;DHT22;52327;42.622;23.316;2023-02-28T00:02:48;7.62;91.87
65637;DHT22;52327;42.622;23.316;2023-02-28T00:05:15;7.59;91.82
65637;DHT22;52327;42.622;23.316;2023-02-28T00:07:41;7.54;91.81
65637;DHT22;52327;42.622;23.316;2023-02-28T00:10:10;7.52;91.71
65637;DHT22;52327;42.622;23.316;2023-02-28T00:12:36;7.54;91.93
65637;DHT22;52327;42.622;23.316;2023-02-28T00:15:05;7.54;91.95
65637;DHT22;52327;42.622;23.316;2023-02-28T00:17:30;7.47;92.05
65637;DHT22;52327;42.622;23.316;2023-02-28T00:19:56;7.48;91.93
65637;DHT22;52327;42.622;23.316;2023-02-28T00:22:22;7.47;91.82
65637;DHT22;52327;42.622;23.316;2023-02-28T00:24:47;7.45;91.72
65637;DHT22;52327;42.622;23.316;2023-02-28T00:27:13;7.38;91.79
65637;DHT22;52327;42.622;23.316;2023-02-28T00:29:39;7.31;91.86
65637;DHT22;52327;42.622;23.316;2023-02-28T00:32:05;7.20;91.41
65637;DHT22;52327;42.622;23.316;2023-02-28T00:34:31;7.10;90.48
65637;DHT22;52327;42.622;23.316;2023-02-28T00:37:06;7.13;91.51
65637;DHT22;52327;42.622;23.316;2023-02-28T00:39:34;7.14;91.29
65637;DHT22;52327;42.622;23.316;2023-02-28T00:42:00;6.90;91.15
65637;DHT22;52327;42.622;23.316;2023-02-28T00:44:25;6.80;91.53
65637;DHT22;52327;42.622;23.316;2023-02-28T00:46:51;6.76;91.93
65637;DHT22;52327;42.622;23.316;2023-02-28T00:49:19;6.86;91.88
65637;DHT22;52327;42.622;23.316;2023-02-28T00:51:45;6.84;91.02
65637;DHT22;52327;42.622;23.316;2023-02-28T00:54:11;6.79;91.13
65637;DHT22;52327;42.622;23.316;2023-02-28T00:56:36;6.73;91.33
65637;DHT22;52327;42.622;23.316;2023-02-28T00:59:01;6.65;91.16
65637;DHT22;52327;42.622;23.316;2023-02-28T01:01:27;6.65;90.98
65637;DHT22;52327;42.622;23.316;2023-02-28T01:03:52;6.52;91.25
65637;DHT22;52327;42.622;23.316;2023-02-28T01:06:18;6.43;91.54
65637;DHT22;52327;42.622;23.316;2023-02-28T01:08:43;6.50;91.45
65637;DHT22;52327;42.622;23.316;2023-02-28T01:11:14;6.46;91.38
65637;DHT22;52327;42.622;23.316;2023-02-28T01:13:41;6.36;91.39
65637;DHT22;52327;42.622;23.316;2023-02-28T01:16:08;6.33;91.32
65637;DHT22;52327;42.622;23.316;2023-02-28T01:18:34;6.22;91.53
65637;DHT22;52327;42.622;23.316;2023-02-28T01:21:05;6.35;92.10
65637;DHT22;52327;42.622;23.316;2023-02-28T01:23:30;6.33;92.01
65637;DHT22;52327;42.622;23.316;2023-02-28T01:25:56;6.28;91.56
65637;DHT22;52327;42.622;23.316;2023-02-28T01:28:21;6.25;91.55
65637;DHT22;52327;42.622;23.316;2023-02-28T01:30:48;6.20;91.56
65637;DHT22;52327;42.622;23.316;2023-02-28T01:33:14;6.14;92.07
65637;DHT22;52327;42.622;23.316;2023-02-28T01:35:39;6.24;92.50
65637;DHT22;52327;42.622;23.316;2023-02-28T01:38:04;6.32;92.86
65637;DHT22;52327;42.622;23.316;2023-02-28T01:40:30;6.45;93.03
65637;DHT22;52327;42.622;23.316;2023-02-28T01:42:55;6.52;93.00
65637;DHT22;52327;42.622;23.316;2023-02-28T01:47:51;6.57;92.38
65637;DHT22;52327;42.622;23.316;2023-02-28T01:50:26;6.59;92.08
65637;DHT22;52327;42.622;23.316;2023-02-28T01:52:55;6.45;92.22
65637;DHT22;52327;42.622;23.316;2023-02-28T01:55:24;6.45;92.83
65637;DHT22;52327;42.622;23.316;2023-02-28T01:57:55;6.53;92.39
65637;DHT22;52327;42.622;23.316;2023-02-28T02:00:24;6.42;92.10
65637;DHT22;52327;42.622;23.316;2023-02-28T02:02:55;6.18;92.29
65637;DHT22;52327;42.622;23.316;2023-02-28T02:05:30;5.98;92.82
65637;DHT22;52327;42.622;23.316;2023-02-28T02:08:01;5.97;93.03
65637;DHT22;52327;42.622;23.316;2023-02-28T02:10:32;5.97;92.82
65637;DHT22;52327;42.622;23.316;2023-02-28T02:13:37;5.93;92.66
65637;DHT22;52327;42.622;23.316;2023-02-28T02:18:52;6.02;92.48
65637;DHT22;52327;42.622;23.316;2023-02-28T02:24:03;6.07;92.45
65637;DHT22;52327;42.622;23.316;2023-02-28T02:37:27;6.01;91.66
65637;DHT22;52327;42.622;23.316;2023-02-28T02:45:16;5.67;91.73
65637;DHT22;52327;42.622;23.316;2023-02-28T02:47:45;5.61;91.78
65637;DHT22;52327;42.622;23.316;2023-02-28T02:50:18;5.61;91.51
65637;DHT22;52327;42.622;23.316;2023-02-28T02:52:49;5.64;91.46
65637;DHT22;52327;42.622;23.316;2023-02-28T02:55:17;5.47;91.48
65637;DHT22;52327;42.622;23.316;2023-02-28T02:57:48;5.51;91.70
65637;DHT22;52327;42.622;23.316;2023-02-28T03:00:17;5.46;91.79
65637;DHT22;52327;42.622;23.316;2023-02-28T03:02:44;5.46;91.69
65637;DHT22;52327;42.622;23.316;2023-02-28T03:05:35;5.40;91.68
65637;DHT22;52327;42.622;23.316;2023-02-28T03:08:04;5.38;91.92
65637;DHT22;52327;42.622;23.316;2023-02-28T03:10:35;5.40;91.89
65637;DHT22;52327;42.622;23.316;2023-02-28T03:27:08;5.49;93.22
65637;DHT22;52327;42.622;23.316;2023-02-28T03:29:41;5.61;93.11
65637;DHT22;52327;42.622;23.316;2023-02-28T03:32:17;5.75;93.16
65637;DHT22;52327;42.622;23.316;2023-02-28T03:34:55;5.81;93.19
65637;DHT22;52327;42.622;23.316;2023-02-28T03:37:23;5.90;93.17
65637;DHT22;52327;42.622;23.316;2023-02-28T03:39:54;6.02;93.03
65637;DHT22;52327;42.622;23.316;2023-02-28T03:42:24;6.14;92.82
65637;DHT22;52327;42.622;23.316;2023-02-28T03:44:55;6.15;92.76
65637;DHT22;52327;42.622;23.316;2023-02-28T03:47:37;6.26;92.59
65637;DHT22;52327;42.622;23.316;2023-02-28T03:50:13;6.35;92.77
65637;DHT22;52327;42.622;23.316;2023-02-28T03:52:48;6.43;92.80
65637;DHT22;52327;42.622;23.316;2023-02-28T03:55:16;6.43;92.72
65637;DHT22;52327;42.622;23.316;2023-02-28T04:00:28;6.52;92.38
65637;DHT22;52327;42.622;23.316;2023-02-28T04:02:55;6.61;92.19
65637;DHT22;52327;42.622;23.316;2023-02-28T04:05:22;6.55;91.96
65637;DHT22;52327;42.622;23.316;2023-02-28T04:07:48;6.49;92.42
65637;DHT22;52327;42.622;23.316;2023-02-28T04:10:15;6.52;92.30
65637;DHT22;52327;42.622;23.316;2023-02-28T04:12:40;6.39;92.31
65637;DHT22;52327;42.622;23.316;2023-02-28T04:15:06;6.39;92.54
65637;DHT22;52327;42.622;23.316;2023-02-28T04:17:38;6.45;91.89
65637;DHT22;52327;42.622;23.316;2023-02-28T04:20:04;6.46;92.39
65637;DHT22;52327;42.622;23.316;2023-02-28T04:22:34;6.50;92.48
65637;DHT22;52327;42.622;23.316;2023-02-28T04:24:59;6.42;92.18
65637;DHT22;52327;42.622;23.316;2023-02-28T04:27:25;6.22;92.31
65637;DHT22;52327;42.622;23.316;2023-02-28T04:29:50;6.02;92.62
65637;DHT22;52327;42.622;23.316;2023-02-28T04:32:15;6.02;92.94
65637;DHT22;52327;42.622;23.316;2023-02-28T04:34:41;6.10;92.97
65637;DHT22;52327;42.622;23.316;2023-02-28T04:37:06;6.21;92.71
65637;DHT22;52327;42.622;23.316;2023-02-28T04:39:35;6.24;92.72
65637;DHT22;52327;42.622;23.316;2023-02-28T04:42:01;6.36;92.31
65637;DHT22;52327;42.622;23.316;2023-02-28T04:44:26;6.32;92.12
65637;DHT22;52327;42.622;23.316;2023-02-28T04:46:52;6.39;92.01
65637;DHT22;52327;42.622;23.316;2023-02-28T04:49:17;6.20;92.21
65637;DHT22;52327;42.622;23.316;2023-02-28T04:51:42;6.17;92.53
65637;DHT22;52327;42.622;23.316;2023-02-28T04:54:08;6.21;92.56
65637;DHT22;52327;42.622;23.316;2023-02-28T04:56:34;6.25;92.45
65637;DHT22;52327;42.622;23.316;2023-02-28T04:58:59;6.17;92.32
65637;DHT22;52327;42.622;23.316;2023-02-28T05:01:27;6.26;92.42
65637;DHT22;52327;42.622;23.316;2023-02-28T05:03:53;6.28;92.44
65637;DHT22;52327;42.622;23.316;2023-02-28T05:06:20;6.29;92.29
65637;DHT22;52327;42.622;23.316;2023-02-28T05:08:46;6.32;92.27
65637;DHT22;52327;42.622;23.316;2023-02-28T05:11:17;6.35;92.13
65637;DHT22;52327;42.622;23.316;2023-02-28T05:13:44;6.42;91.86
65637;DHT22;52327;42.622;23.316;2023-02-28T05:16:11;6.43;91.93
65637;DHT22;52327;42.622;23.316;2023-02-28T05:18:37;6.36;91.97
65637;DHT22;52327;42.622;23.316;2023-02-28T05:21:02;6.31;92.13
65637;DHT22;52327;42.622;23.316;2023-02-28T05:23:28;6.33;92.38
65637;DHT22;52327;42.622;23.316;2023-02-28T05:25:54;6.38;92.40
65637;DHT22;52327;42.622;23.316;2023-02-28T05:28:20;6.42;92.41
65637;DHT22;52327;42.622;23.316;2023-02-28T05:30:46;6.45;92.28
65637;DHT22;52327;42.622;23.316;2023-02-28T05:33:12;6.38;91.98
65637;DHT22;52327;42.622;23.316;2023-02-28T05:35:41;6.39;92.23
65637;DHT22;52327;42.622;23.316;2023-02-28T05:38:08;6.42;92.57
65637;DHT22;52327;42.622;23.316;2023-02-28T05:40:34;6.45;92.69
65637;DHT22;52327;42.622;23.316;2023-02-28T05:42:59;6.48;92.76
65637;DHT22;52327;42.622;23.316;2023-02-28T05:45:24;6.57;92.82
65637;DHT22;52327;42.622;23.316;2023-02-28T05:47:53;6.68;92.63
65637;DHT22;52327;42.622;23.316;2023-02-28T05:50:19;6.76;92.43
65637;DHT22;52327;42.622;23.316;2023-02-28T05:52:44;6.80;92.25
65637;DHT22;52327;42.622;23.316;2023-02-28T05:55:13;6.93;92.17
65637;DHT22;52327;42.622;23.316;2023-02-28T05:57:39;6.96;92.01
65637;DHT22;52327;42.622;23.316;2023-02-28T06:00:05;6.97;92.12
65637;DHT22;52327;42.622;23.316;2023-02-28T06:02:30;7.10;91.85
65637;DHT22;52327;42.622;23.316;2023-02-28T06:04:56;7.18;91.95
65637;DHT22;52327;42.622;23.316;2023-02-28T06:07:21;7.03;91.52
65637;DHT22;52327;42.622;23.316;2023-02-28T06:09:47;6.96;92.18
65637;DHT22;52327;42.622;23.316;2023-02-28T06:12:13;6.94;92.03
65637;DHT22;52327;42.622;23.316;2023-02-28T06:14:38;6.96;91.88
65637;DHT22;52327;42.622;23.316;2023-02-28T06:17:04;6.92;91.92
65637;DHT22;52327;42.622;23.316;2023-02-28T06:19:29;7.10;92.02
65637;DHT22;52327;42.622;23.316;2023-02-28T06:21:56;7.17;92.12
65637;DHT22;52327;42.622;23.316;2023-02-28T06:24:23;7.21;92.17
65637;DHT22;52327;42.622;23.316;2023-02-28T06:26:49;7.38;92.01
65637;DHT22;52327;42.622;23.316;2023-02-28T06:29:14;7.45;91.83
65637;DHT22;52327;42.622;23.316;2023-02-28T06:31:47;7.51;91.69
65637;DHT22;52327;42.622;23.316;2023-02-28T06:34:13;7.58;91.89
65637;DHT22;52327;42.622;23.316;2023-02-28T06:36:39;7.66;92.02
65637;DHT22;52327;42.622;23.316;2023-02-28T06:39:05;7.75;91.23
65637;DHT22;52327;42.622;23.316;2023-02-28T06:41:31;7.81;91.34
65637;DHT22;52327;42.622;23.316;2023-02-28T06:43:57;7.82;91.40
65637;DHT22;52327;42.622;23.316;2023-02-28T06:46:23;7.85;91.05
65637;DHT22;52327;42.622;23.316;2023-02-28T06:48:48;7.86;90.70
65637;DHT22;52327;42.622;23.316;2023-02-28T06:51:16;7.83;90.82
65637;DHT22;52327;42.622;23.316;2023-02-28T06:53:42;7.86;91.46
65637;DHT22;52327;42.622;23.316;2023-02-28T06:56:09;7.92;91.60
65637;DHT22;52327;42.622;23.316;2023-02-28T06:58:36;7.95;91.65
65637;DHT22;52327;42.622;23.316;2023-02-28T07:01:03;7.90;91.32
65637;DHT22;52327;42.622;23.316;2023-02-28T07:03:29;7.93;91.45
65637;DHT22;52327;42.622;23.316;2023-02-28T07:05:54;7.83;91.47
65637;DHT22;52327;42.622;23.316;2023-02-28T07:08:22;7.89;91.96
65637;DHT22;52327;42.622;23.316;2023-02-28T07:10:51;8.02;91.88
65637;DHT22;52327;42.622;23.316;2023-02-28T07:13:17;8.02;91.44
65637;DHT22;52327;42.622;23.316;2023-02-28T07:15:42;8.05;91.81
65637;DHT22;52327;42.622;23.316;2023-02-28T07:18:07;8.09;91.76
65637;DHT22;52327;42.622;23.316;2023-02-28T07:20:33;8.26;91.61
65637;DHT22;52327;42.622;23.316;2023-02-28T07:22:58;8.41;91.55
65637;DHT22;52327;42.622;23.316;2023-02-28T07:25:26;8.48;91.53
65637;DHT22;52327;42.622;23.316;2023-02-28T07:27:51;8.60;91.77
65637;DHT22;52327;42.622;23.316;2023-02-28T07:30:17;8.78;91.35
65637;DHT22;52327;42.622;23.316;2023-02-28T07:32:42;8.82;91.24
65637;DHT22;52327;42.622;23.316;2023-02-28T07:35:08;9.01;91.27
65637;DHT22;52327;42.622;23.316;2023-02-28T07:37:34;9.08;91.33
65637;DHT22;52327;42.622;23.316;2023-02-28T07:40:07;9.19;90.98
65637;DHT22;52327;42.622;23.316;2023-02-28T07:42:34;9.25;90.74
65637;DHT22;52327;42.622;23.316;2023-02-28T07:45:00;9.36;90.69
65637;DHT22;52327;42.622;23.316;2023-02-28T07:47:26;9.40;89.95
65637;DHT22;52327;42.622;23.316;2023-02-28T07:49:51;9.29;89.93
65637;DHT22;52327;42.622;23.316;2023-02-28T07:52:17;9.36;89.99
65637;DHT22;52327;42.622;23.316;2023-02-28T07:54:43;9.40;90.05
65637;DHT22;52327;42.622;23.316;2023-02-28T07:57:08;9.39;89.88
65637;DHT22;52327;42.622;23.316;2023-02-28T07:59:34;9.35;90.27
65637;DHT22;52327;42.622;23.316;2023-02-28T08:01:59;9.36;90.26
65637;DHT22;52327;42.622;23.316;2023-02-28T08:04:25;9.38;90.59
65637;DHT22;52327;42.622;23.316;2023-02-28T08:06:50;9.43;90.72
65637;DHT22;52327;42.622;23.316;2023-02-28T08:09:19;9.50;90.57
65637;DHT22;52327;42.622;23.316;2023-02-28T08:11:45;9.57;90.62
65637;DHT22;52327;42.622;23.316;2023-02-28T08:14:10;9.61;90.34
65637;DHT22;52327;42.622;23.316;2023-02-28T08:16:36;9.66;90.35
65637;DHT22;52327;42.622;23.316;2023-02-28T08:19:02;9.63;89.97
65637;DHT22;52327;42.622;23.316;2023-02-28T08:21:27;9.66;89.90
65637;DHT22;52327;42.622;23.316;2023-02-28T08:23:53;9.57;89.93
65637;DHT22;52327;42.622;23.316;2023-02-28T08:26:19;9.56;90.18
65637;DHT22;52327;42.622;23.316;2023-02-28T08:28:45;9.64;89.92
65637;DHT22;52327;42.622;23.316;2023-02-28T08:31:12;9.26;89.99
65637;DHT22;52327;42.622;23.316;2023-02-28T08:33:39;9.19;90.69
65637;DHT22;52327;42.622;23.316;2023-02-28T08:36:06;9.11;88.90
65637;DHT22;52327;42.622;23.316;2023-02-28T08:38:32;9.15;89.85
65637;DHT22;52327;42.622;23.316;2023-02-28T08:40:59;8.97;90.18
65637;DHT22;52327;42.622;23.316;2023-02-28T08:43:25;9.07;90.06
65637;DHT22;52327;42.622;23.316;2023-02-28T08:45:54;9.12;90.27
65637;DHT22;52327;42.622;23.316;2023-02-28T08:48:22;9.12;90.73
65637;DHT22;52327;42.622;23.316;2023-02-28T08:50:59;9.19;90.39
65637;DHT22;52327;42.622;23.316;2023-02-28T08:53:25;9.20;90.15
65637;DHT22;52327;42.622;23.316;2023-02-28T08:58:23;9.49;90.35
65637;DHT22;52327;42.622;23.316;2023-02-28T09:00:49;9.66;90.38
65637;DHT22;52327;42.622;23.316;2023-02-28T09:03:15;9.69;90.26
65637;DHT22;52327;42.622;23.316;2023-02-28T09:05:40;9.77;90.28
65637;DHT22;52327;42.622;23.316;2023-02-28T09:08:06;9.86;90.03
65637;DHT22;52327;42.622;23.316;2023-02-28T09:10:31;9.80;89.75
65637;DHT22;52327;42.622;23.316;2023-02-28T09:12:56;9.76;88.64
65637;DHT22;52327;42.622;23.316;2023-02-28T09:15:22;9.80;88.82
65637;DHT22;52327;42.622;23.316;2023-02-28T09:17:47;9.79;89.09
65637;DHT22;52327;42.622;23.316;2023-02-28T09:20:13;9.76;89.12
65637;DHT22;52327;42.622;23.316;2023-02-28T09:22:38;9.66;89.85
65637;DHT22;52327;42.622;23.316;2023-02-28T09:25:04;9.87;90.03
65637;DHT22;52327;42.622;23.316;2023-02-28T09:27:29;10.15;88.34
65637;DHT22;52327;42.622;23.316;2023-02-28T09:29:55;10.37;88.39
65637;DHT22;52327;42.622;23.316;2023-02-28T09:32:20;10.56;88.17
65637;DHT22;52327;42.622;23.316;2023-02-28T09:34:45;10.63;85.87
65637;DHT22;52327;42.622;23.316;2023-02-28T09:37:11;10.66;86.45
65637;DHT22;52327;42.622;23.316;2023-02-28T09:39:36;10.82;86.16
65637;DHT22;52327;42.622;23.316;2023-02-28T09:42:03;10.93;84.77
65637;DHT22;52327;42.622;23.316;2023-02-28T09:49:39;11.03;79.52
65637;DHT22;52327;42.622;23.316;2023-02-28T09:52:13;11.13;83.68
65637;DHT22;52327;42.622;23.316;2023-02-28T09:54:41;11.12;85.53
65637;DHT22;52327;42.622;23.316;2023-02-28T10:00:02;11.55;82.37
65637;DHT22;52327;42.622;23.316;2023-02-28T10:02:48;11.64;77.53
65637;DHT22;52327;42.622;23.316;2023-02-28T10:05:21;11.78;82.12
65637;DHT22;52327;42.622;23.316;2023-02-28T10:08:11;11.98;80.30
65637;DHT22;52327;42.622;23.316;2023-02-28T10:10:41;12.09;81.34
65637;DHT22;52327;42.622;23.316;2023-02-28T10:16:11;12.45;80.16
65637;DHT22;52327;42.622;23.316;2023-02-28T10:21:46;12.45;77.81
65637;DHT22;52327;42.622;23.316;2023-02-28T10:24:35;12.33;79.11
65637;DHT22;52327;42.622;23.316;2023-02-28T10:27:23;12.36;78.40
65637;DHT22;52327;42.622;23.316;2023-02-28T10:29:52;12.59;78.01
65637;DHT22;52327;42.622;23.316;2023-02-28T10:32:21;12.87;79.29
65637;DHT22;52327;42.622;23.316;2023-02-28T10:35:21;13.27;78.20
65637;DHT22;52327;42.622;23.316;2023-02-28T10:37:56;13.42;73.60
65637;DHT22;52327;42.622;23.316;2023-02-28T10:45:24;13.80;76.99
65637;DHT22;52327;42.622;23.316;2023-02-28T10:47:56;13.82;74.22
65637;DHT22;52327;42.622;23.316;2023-02-28T10:59:01;13.90;73.23
65637;DHT22;52327;42.622;23.316;2023-02-28T11:01:40;13.87;71.49
65637;DHT22;52327;42.622;23.316;2023-02-28T11:04:17;13.61;68.65
65637;DHT22;52327;42.622;23.316;2023-02-28T11:06:44;13.57;72.81
65637;DHT22;52327;42.622;23.316;2023-02-28T11:09:28;13.61;70.40
65637;DHT22;52327;42.622;23.316;2023-02-28T11:11:56;13.57;68.47
65637;DHT22;52327;42.622;23.316;2023-02-28T11:14:34;13.63;70.94
65637;DHT22;52327;42.622;23.316;2023-02-28T11:17:14;13.61;72.39
65637;DHT22;52327;42.622;23.316;2023-02-28T11:19:47;13.37;67.61
65637;DHT22;52327;42.622;23.316;2023-02-28T11:22:23;13.22;70.27
65637;DHT22;52327;42.622;23.316;2023-02-28T11:24:53;13.22;69.05
65637;DHT22;52327;42.622;23.316;2023-02-28T11:29:59;13.15;69.77
65637;DHT22;52327;42.622;23.316;2023-02-28T11:32:30;12.94;70.46
65637;DHT22;52327;42.622;23.316;2023-02-28T11:35:03;12.86;70.17
65637;DHT22;52327;42.622;23.316;2023-02-28T11:37:30;12.83;69.24
65637;DHT22;52327;42.622;23.316;2023-02-28T11:39:56;12.83;69.89
65637;DHT22;52327;42.622;23.316;2023-02-28T11:42:43;12.77;71.52
65637;DHT22;52327;42.622;23.316;2023-02-28T11:45:45;12.93;72.76
65637;DHT22;52327;42.622;23.316;2023-02-28T11:48:21;13.21;70.47
65637;DHT22;52327;42.622;23.316;2023-02-28T11:56:49;13.21;67.55
65637;DHT22;52327;42.622;23.316;2023-02-28T12:02:08;12.97;69.85
65637;DHT22;52327;42.622;23.316;2023-02-28T12:04:52;12.83;70.97
65637;DHT22;52327;42.622;23.316;2023-02-28T12:08:18;12.96;69.56
65637;DHT22;52327;42.622;23.316;2023-02-28T12:10:27;12.96;72.12
65637;DHT22;52327;42.622;23.316;2023-02-28T12:13:16;13.10;70.40
65637;DHT22;52327;42.622;23.316;2023-02-28T12:19:04;13.22;69.27
65637;DHT22;52327;42.622;23.316;2023-02-28T12:26:58;13.11;71.33
65637;DHT22;52327;42.622;23.316;2023-02-28T12:29:27;12.98;70.11
65637;DHT22;52327;42.622;23.316;2023-02-28T12:32:08;12.94;71.67
65637;DHT22;52327;42.622;23.316;2023-02-28T12:34:41;12.80;70.89
65637;DHT22;52327;42.622;23.316;2023-02-28T12:37:13;12.80;72.51
65637;DHT22;52327;42.622;23.316;2023-02-28T12:39:44;12.68;71.75
65637;DHT22;52327;42.622;23.316;2023-02-28T12:42:15;12.87;72.12
65637;DHT22;52327;42.622;23.316;2023-02-28T12:45:09;12.96;70.59
65637;DHT22;52327;42.622;23.316;2023-02-28T12:47:38;12.80;71.08
65637;DHT22;52327;42.622;23.316;2023-02-28T12:50:06;12.63;69.48
65637;DHT22;52327;42.622;23.316;2023-02-28T12:56:07;12.98;72.94
65637;DHT22;52327;42.622;23.316;2023-02-28T12:58:38;13.51;68.16
65637;DHT22;52327;42.622;23.316;2023-02-28T13:06:54;13.90;67.87
65637;DHT22;52327;42.622;23.316;2023-02-28T13:09:24;13.47;69.50
65637;DHT22;52327;42.622;23.316;2023-02-28T13:11:51;13.14;68.16
65637;DHT22;52327;42.622;23.316;2023-02-28T13:19:36;12.70;71.73
65637;DHT22;52327;42.622;23.316;2023-02-28T13:22:03;12.66;68.04
65637;DHT22;52327;42.622;23.316;2023-02-28T13:29:42;12.53;72.30
65637;DHT22;52327;42.622;23.316;2023-02-28T13:47:39;13.22;71.62
65637;DHT22;52327;42.622;23.316;2023-02-28T13:50:22;12.94;69.33
65637;DHT22;52327;42.622;23.316;2023-02-28T13:53:05;12.83;71.69
65637;DHT22;52327;42.622;23.316;2023-02-28T13:59:03;12.59;74.05
65637;DHT22;52327;42.622;23.316;2023-02-28T14:04:37;12.72;71.82
65637;DHT22;52327;42.622;23.316;2023-02-28T14:07:06;12.64;69.81
65637;DHT22;52327;42.622;23.316;2023-02-28T14:09:35;12.61;72.83
65637;DHT22;52327;42.622;23.316;2023-02-28T14:18:00;12.63;73.32
65637;DHT22;52327;42.622;23.316;2023-02-28T14:20:29;12.59;69.15
65637;DHT22;52327;42.622;23.316;2023-02-28T14:23:14;12.64;72.88
65637;DHT22;52327;42.622;23.316;2023-02-28T14:31:41;12.47;71.48
65637;DHT22;52327;42.622;23.316;2023-02-28T14:34:40;12.42;71.66
65637;DHT22;52327;42.622;23.316;2023-02-28T14:37:15;12.11;69.92
65637;DHT22;52327;42.622;23.316;2023-02-28T14:39:42;11.88;70.96
65637;DHT22;52327;42.622;23.316;2023-02-28T14:42:35;11.91;72.27
65637;DHT22;52327;42.622;23.316;2023-02-28T14:45:04;11.86;73.28
65637;DHT22;52327;42.622;23.316;2023-02-28T14:47:34;11.74;72.18
65637;DHT22;52327;42.622;23.316;2023-02-28T14:50:03;11.75;70.00
65637;DHT22;52327;42.622;23.316;2023-02-28T14:52:31;11.71;72.26
65637;DHT22;52327;42.622;23.316;2023-02-28T14:55:00;11.58;73.94
65637;DHT22;52327;42.622;23.316;2023-02-28T14:57:35;11.45;75.21
65637;DHT22;52327;42.622;23.316;2023-02-28T15:02:36;11.30;74.38
65637;DHT22;52327;42.622;23.316;2023-02-28T15:05:24;11.34;75.72
65637;DHT22;52327;42.622;23.316;2023-02-28T15:08:18;11.22;72.21
65637;DHT22;52327;42.622;23.316;2023-02-28T15:10:53;11.26;73.58
65637;DHT22;52327;42.622;23.316;2023-02-28T15:13:19;11.30;75.13
65637;DHT22;52327;42.622;23.316;2023-02-28T15:20:55;11.22;76.77
65637;DHT22;52327;42.622;23.316;2023-02-28T15:23:21;11.12;75.75
65637;DHT22;52327;42.622;23.316;2023-02-28T15:25:48;11.12;77.27
65637;DHT22;52327;42.622;23.316;2023-02-28T15:28:18;11.07;74.47
65637;DHT22;52327;42.622;23.316;2023-02-28T15:30:54;11.02;71.27
65637;DHT22;52327;42.622;23.316;2023-02-28T15:33:23;11.00;76.47
65637;DHT22;52327;42.622;23.316;2023-02-28T15:35:50;10.95;75.82
65637;DHT22;52327;42.622;23.316;2023-02-28T15:38:26;10.91;75.60
65637;DHT22;52327;42.622;23.316;2023-02-28T15:40:54;10.83;75.43
65637;DHT22;52327;42.622;23.316;2023-02-28T15:43:32;10.77;75.48
65637;DHT22;52327;42.622;23.316;2023-02-28T15:46:00;10.76;76.58
65637;DHT22;52327;42.622;23.316;2023-02-28T15:48:30;10.73;76.03
65637;DHT22;52327;42.622;23.316;2023-02-28T15:54:02;10.58;78.86
65637;DHT22;52327;42.622;23.316;2023-02-28T15:56:32;10.49;78.41
65637;DHT22;52327;42.622;23.316;2023-02-28T15:59:07;10.49;73.84
65637;DHT22;52327;42.622;23.316;2023-02-28T16:01:37;10.28;75.14
65637;DHT22;52327;42.622;23.316;2023-02-28T16:04:27;10.04;78.43
65637;DHT22;52327;42.622;23.316;2023-02-28T16:09:23;9.46;81.00
65637;DHT22;52327;42.622;23.316;2023-02-28T16:11:53;9.36;80.63
65637;DHT22;52327;42.622;23.316;2023-02-28T16:14:29;9.28;83.28
65637;DHT22;52327;42.622;23.316;2023-02-28T16:17:05;9.36;84.00
65637;DHT22;52327;42.622;23.316;2023-02-28T16:19:31;9.46;84.81
65637;DHT22;52327;42.622;23.316;2023-02-28T16:21:57;9.52;83.81
65637;DHT22;52327;42.622;23.316;2023-02-28T16:24:23;9.47;81.99
65637;DHT22;52327;42.622;23.316;2023-02-28T16:26:50;9.39;80.38
65637;DHT22;52327;42.622;23.316;2023-02-28T16:29:27;9.11;81.25
65637;DHT22;52327;42.622;23.316;2023-02-28T16:31:54;8.77;81.41
65637;DHT22;52327;42.622;23.316;2023-02-28T16:34:20;8.57;83.40
65637;DHT22;52327;42.622;23.316;2023-02-28T16:36:47;8.57;83.29
65637;DHT22;52327;42.622;23.316;2023-02-28T16:39:13;8.47;85.15
65637;DHT22;52327;42.622;23.316;2023-02-28T16:41:41;8.44;84.40
65637;DHT22;52327;42.622;23.316;2023-02-28T16:44:12;8.30;83.30
65637;DHT22;52327;42.622;23.316;2023-02-28T16:46:39;8.34;82.97
65637;DHT22;52327;42.622;23.316;2023-02-28T16:49:08;8.38;85.41
65637;DHT22;52327;42.622;23.316;2023-02-28T16:51:35;8.41;84.93
65637;DHT22;52327;42.622;23.316;2023-02-28T16:54:00;8.44;84.89
65637;DHT22;52327;42.622;23.316;2023-02-28T16:56:26;8.40;83.64
65637;DHT22;52327;42.622;23.316;2023-02-28T16:58:54;8.30;84.63
65637;DHT22;52327;42.622;23.316;2023-02-28T17:01:21;8.29;85.37
65637;DHT22;52327;42.622;23.316;2023-02-28T17:03:47;8.26;85.01
65637;DHT22;52327;42.622;23.316;2023-02-28T17:06:23;8.32;83.44
65637;DHT22;52327;42.622;23.316;2023-02-28T17:08:51;8.30;84.98
65637;DHT22;52327;42.622;23.316;2023-02-28T17:11:18;8.32;84.21
65637;DHT22;52327;42.622;23.316;2023-02-28T17:13:44;8.41;83.23
65637;DHT22;52327;42.622;23.316;2023-02-28T17:16:30;8.41;84.95
65637;DHT22;52327;42.622;23.316;2023-02-28T17:19:04;8.47;84.20
65637;DHT22;52327;42.622;23.316;2023-02-28T17:21:31;8.41;84.26
65637;DHT22;52327;42.622;23.316;2023-02-28T17:23:57;8.40;84.91
65637;DHT22;52327;42.622;23.316;2023-02-28T17:26:23;8.34;83.93
65637;DHT22;52327;42.622;23.316;2023-02-28T17:28:53;8.34;84.54
65637;DHT22;52327;42.622;23.316;2023-02-28T17:31:21;8.40;85.17
65637;DHT22;52327;42.622;23.316;2023-02-28T17:33:47;8.27;83.08
65637;DHT22;52327;42.622;23.316;2023-02-28T17:36:19;8.03;84.15
65637;DHT22;52327;42.622;23.316;2023-02-28T17:38:47;7.95;84.33
65637;DHT22;52327;42.622;23.316;2023-02-28T17:41:12;7.79;84.47
65637;DHT22;52327;42.622;23.316;2023-02-28T17:43:38;7.82;85.24
65637;DHT22;52327;42.622;23.316;2023-02-28T17:46:04;7.85;85.94
65637;DHT22;52327;42.622;23.316;2023-02-28T17:48:33;7.88;85.64
65637;DHT22;52327;42.622;23.316;2023-02-28T17:50:59;7.88;86.24
65637;DHT22;52327;42.622;23.316;2023-02-28T17:53:24;7.81;85.26
65637;DHT22;52327;42.622;23.316;2023-02-28T17:55:50;7.71;85.80
65637;DHT22;52327;42.622;23.316;2023-02-28T17:58:16;7.72;85.23
65637;DHT22;52327;42.622;23.316;2023-02-28T18:00:44;7.68;86.63
65637;DHT22;52327;42.622;23.316;2023-02-28T18:03:09;7.54;85.20
65637;DHT22;52327;42.622;23.316;2023-02-28T18:05:36;7.45;86.57
65637;DHT22;52327;42.622;23.316;2023-02-28T18:08:02;7.51;86.42
65637;DHT22;52327;42.622;23.316;2023-02-28T18:10:27;7.35;86.70
65637;DHT22;52327;42.622;23.316;2023-02-28T18:12:53;7.23;87.07
65637;DHT22;52327;42.622;23.316;2023-02-28T18:15:20;7.30;87.13
65637;DHT22;52327;42.622;23.316;2023-02-28T18:17:47;7.27;86.94